East Keansburg, New Jersey
Current Conditions -  °F | °C
As of 12:55 AM on Wednesday 22 Oct 2014 (Local Time) from KLDJ Reporting Station
Broken Clouds Broken Clouds  
Wind Chill: 60°   Ceiling: 1800
Heat Index: 60°   Visibility: 10mi
Dew Point: 56°   Wind: 7mph
Humidity: 86%   Direction: 30°NNE
Pressure: 29.91"   Gusts: NA
Location:  40.4416°N, 74.1294°W
Report Text: KLDJ 220455Z AUTO 03006KT 10SM BKN018 BKN022 BKN029 16/13 A2991 RMK AO2 LTG DSNT W T01550132
Loading
Personal Weather Stations






























Interactive Weather Map
Tropical Storm Tracking
New forecast layout! Learn more

10-Day Weather Forecast

Advertisements
Track Severe Weather on mobile